sensor_id;sensor_type;location;lat;lon;timestamp;pressure;altitude;pressure_sealevel;temperature;humidity
71976;BME280;60680;52.182;5.398;2023-02-01T00:00:11;101937.28;;;4.76;85.16
71976;BME280;60680;52.182;5.398;2023-02-01T00:02:38;101928.69;;;4.78;84.55
71976;BME280;60680;52.182;5.398;2023-02-01T00:05:08;101931.25;;;4.80;85.45
71976;BME280;60680;52.182;5.398;2023-02-01T00:07:36;101931.28;;;4.78;85.41
71976;BME280;60680;52.182;5.398;2023-02-01T00:10:04;101928.66;;;4.80;85.60
71976;BME280;60680;52.182;5.398;2023-02-01T00:12:31;101936.44;;;4.78;85.37
71976;BME280;60680;52.182;5.398;2023-02-01T00:14:58;101938.13;;;4.78;85.72
71976;BME280;60680;52.182;5.398;2023-02-01T00:17:24;101928.69;;;4.78;85.62
71976;BME280;60680;52.182;5.398;2023-02-01T00:19:51;101926.97;;;4.77;85.23
71976;BME280;60680;52.182;5.398;2023-02-01T00:22:18;101924.38;;;4.77;85.77
71976;BME280;60680;52.182;5.398;2023-02-01T00:24:44;101927.81;;;4.81;86.12
71976;BME280;60680;52.182;5.398;2023-02-01T00:27:11;101929.50;;;4.82;85.92
71976;BME280;60680;52.182;5.398;2023-02-01T00:29:44;101924.34;;;4.82;85.76
71976;BME280;60680;52.182;5.398;2023-02-01T00:32:11;101927.75;;;4.87;85.79
71976;BME280;60680;52.182;5.398;2023-02-01T00:34:38;101902.81;;;4.89;86.15
71976;BME280;60680;52.182;5.398;2023-02-01T00:37:04;101923.34;;;4.97;85.75
71976;BME280;60680;52.182;5.398;2023-02-01T00:39:31;101919.88;;;4.99;85.47
71976;BME280;60680;52.182;5.398;2023-02-01T00:41:57;101918.19;;;5.00;85.51
71976;BME280;60680;52.182;5.398;2023-02-01T00:44:23;101925.03;;;4.99;86.07
71976;BME280;60680;52.182;5.398;2023-02-01T00:46:50;101929.34;;;5.02;86.08
71976;BME280;60680;52.182;5.398;2023-02-01T00:49:16;101927.59;;;5.02;85.94
71976;BME280;60680;52.182;5.398;2023-02-01T00:51:43;101922.44;;;5.02;85.51
71976;BME280;60680;52.182;5.398;2023-02-01T00:54:09;101927.59;;;5.01;85.75
71976;BME280;60680;52.182;5.398;2023-02-01T00:56:36;101920.72;;;5.01;85.76
71976;BME280;60680;52.182;5.398;2023-02-01T00:59:02;101931.03;;;5.03;85.75
71976;BME280;60680;52.182;5.398;2023-02-01T01:01:28;101935.28;;;5.10;85.48
71976;BME280;60680;52.182;5.398;2023-02-01T01:03:58;101929.19;;;5.14;85.43
71976;BME280;60680;52.182;5.398;2023-02-01T01:06:30;101930.03;;;5.16;85.46
71976;BME280;60680;52.182;5.398;2023-02-01T01:08:59;101920.59;;;5.15;84.96
71976;BME280;60680;52.182;5.398;2023-02-01T01:11:31;101909.38;;;5.19;85.10
71976;BME280;60680;52.182;5.398;2023-02-01T01:13:58;101909.38;;;5.16;84.64
71976;BME280;60680;52.182;5.398;2023-02-01T01:16:28;101906.84;;;5.15;85.22
71976;BME280;60680;52.182;5.398;2023-02-01T01:18:55;101905.13;;;5.14;85.16
71976;BME280;60680;52.182;5.398;2023-02-01T01:21:23;101902.53;;;5.15;84.68
71976;BME280;60680;52.182;5.398;2023-02-01T01:23:49;101917.13;;;5.16;85.07
71976;BME280;60680;52.182;5.398;2023-02-01T01:26:22;101902.47;;;5.18;84.33
71976;BME280;60680;52.182;5.398;2023-02-01T01:28:49;101904.16;;;5.22;84.35
71976;BME280;60680;52.182;5.398;2023-02-01T01:31:17;101906.72;;;5.24;84.23
71976;BME280;60680;52.182;5.398;2023-02-01T01:33:48;101898.09;;;5.29;84.10
71976;BME280;60680;52.182;5.398;2023-02-01T01:36:15;101894.56;;;5.35;83.25
71976;BME280;60680;52.182;5.398;2023-02-01T01:38:41;101901.44;;;5.38;83.59
71976;BME280;60680;52.182;5.398;2023-02-01T01:41:13;101892.78;;;5.40;83.63
71976;BME280;60680;52.182;5.398;2023-02-01T01:46:17;101904.72;;;5.50;82.84
71976;BME280;60680;52.182;5.398;2023-02-01T01:48:44;101905.56;;;5.53;82.74
71976;BME280;60680;52.182;5.398;2023-02-01T01:51:14;101894.34;;;5.54;82.37
71976;BME280;60680;52.182;5.398;2023-02-01T01:53:45;101891.72;;;5.57;82.07
71976;BME280;60680;52.182;5.398;2023-02-01T01:56:15;101890.84;;;5.59;82.14
71976;BME280;60680;52.182;5.398;2023-02-01T01:58:41;101893.38;;;5.61;82.33
71976;BME280;60680;52.182;5.398;2023-02-01T02:01:08;101888.19;;;5.64;82.13
71976;BME280;60680;52.182;5.398;2023-02-01T02:03:45;101878.69;;;5.66;81.79
71976;BME280;60680;52.182;5.398;2023-02-01T02:06:25;101870.06;;;5.67;82.17
71976;BME280;60680;52.182;5.398;2023-02-01T02:08:53;101873.47;;;5.70;82.25
71976;BME280;60680;52.182;5.398;2023-02-01T02:11:19;101869.13;;;5.72;82.20
71976;BME280;60680;52.182;5.398;2023-02-01T02:13:49;101873.41;;;5.75;82.23
71976;BME280;60680;52.182;5.398;2023-02-01T02:16:50;101869.06;;;5.77;82.20
71976;BME280;60680;52.182;5.398;2023-02-01T02:27:39;101860.41;;;5.81;82.28
71976;BME280;60680;52.182;5.398;2023-02-01T02:30:28;101851.75;;;5.85;83.24
71976;BME280;60680;52.182;5.398;2023-02-01T02:33:23;101850.81;;;5.89;83.25
71976;BME280;60680;52.182;5.398;2023-02-01T02:36:01;101853.34;;;5.92;82.58
71976;BME280;60680;52.182;5.398;2023-02-01T02:41:28;101842.16;;;5.93;82.49
71976;BME280;60680;52.182;5.398;2023-02-01T02:44:37;101835.25;;;5.96;82.88
71976;BME280;60680;52.182;5.398;2023-02-01T02:47:52;101843.84;;;5.98;83.27
71976;BME280;60680;52.182;5.398;2023-02-01T02:50:33;101846.44;;;5.98;82.36
71976;BME280;60680;52.182;5.398;2023-02-01T02:56:43;101818.88;;;5.97;82.54
71976;BME280;60680;52.182;5.398;2023-02-01T02:59:28;101807.69;;;5.98;82.64
71976;BME280;60680;52.182;5.398;2023-02-01T03:02:15;101807.72;;;5.95;82.81
71976;BME280;60680;52.182;5.398;2023-02-01T03:05:02;101806.84;;;5.94;82.25
71976;BME280;60680;52.182;5.398;2023-02-01T03:07:54;101810.31;;;5.93;82.22
71976;BME280;60680;52.182;5.398;2023-02-01T03:12:51;101813.91;;;5.83;82.35
71976;BME280;60680;52.182;5.398;2023-02-01T03:15:28;101812.25;;;5.79;82.87
71976;BME280;60680;52.182;5.398;2023-02-01T03:18:00;101816.56;;;5.78;82.84
71976;BME280;60680;52.182;5.398;2023-02-01T03:20:29;101807.97;;;5.76;82.78
71976;BME280;60680;52.182;5.398;2023-02-01T03:22:57;101811.47;;;5.72;82.67
71976;BME280;60680;52.182;5.398;2023-02-01T03:25:29;101808.91;;;5.70;82.94
71976;BME280;60680;52.182;5.398;2023-02-01T03:28:01;101801.16;;;5.70;82.95
71976;BME280;60680;52.182;5.398;2023-02-01T03:30:33;101793.44;;;5.69;82.53
71976;BME280;60680;52.182;5.398;2023-02-01T03:33:05;101807.22;;;5.68;83.37
71976;BME280;60680;52.182;5.398;2023-02-01T03:35:44;101808.09;;;5.67;83.23
71976;BME280;60680;52.182;5.398;2023-02-01T03:38:38;101815.00;;;5.66;83.17
71976;BME280;60680;52.182;5.398;2023-02-01T03:41:17;101821.91;;;5.63;83.21
71976;BME280;60680;52.182;5.398;2023-02-01T03:43:52;101809.00;;;5.64;83.39
71976;BME280;60680;52.182;5.398;2023-02-01T03:46:29;101805.56;;;5.64;83.57
71976;BME280;60680;52.182;5.398;2023-02-01T03:49:02;101821.97;;;5.60;84.31
71976;BME280;60680;52.182;5.398;2023-02-01T03:51:29;101815.16;;;5.56;83.79
71976;BME280;60680;52.182;5.398;2023-02-01T03:53:59;101821.97;;;5.58;83.51
71976;BME280;60680;52.182;5.398;2023-02-01T03:56:27;101818.50;;;5.61;83.53
71976;BME280;60680;52.182;5.398;2023-02-01T03:58:55;101808.19;;;5.61;83.44
71976;BME280;60680;52.182;5.398;2023-02-01T04:01:29;101814.16;;;5.66;83.83
71976;BME280;60680;52.182;5.398;2023-02-01T04:03:57;101809.75;;;5.69;83.26
71976;BME280;60680;52.182;5.398;2023-02-01T04:06:24;101811.47;;;5.72;83.10
71976;BME280;60680;52.182;5.398;2023-02-01T04:08:51;101818.31;;;5.76;82.97
71976;BME280;60680;52.182;5.398;2023-02-01T04:11:18;101800.16;;;5.81;82.72
71976;BME280;60680;52.182;5.398;2023-02-01T04:13:44;101809.59;;;5.83;82.68
71976;BME280;60680;52.182;5.398;2023-02-01T04:16:11;101809.53;;;5.86;82.51
71976;BME280;60680;52.182;5.398;2023-02-01T04:18:37;101816.41;;;5.89;82.97
71976;BME280;60680;52.182;5.398;2023-02-01T04:21:04;101824.06;;;5.93;82.73
71976;BME280;60680;52.182;5.398;2023-02-01T04:23:30;101823.22;;;5.91;82.03
71976;BME280;60680;52.182;5.398;2023-02-01T04:26:02;101831.84;;;5.90;82.46
71976;BME280;60680;52.182;5.398;2023-02-01T04:28:29;101825.00;;;5.89;82.50
71976;BME280;60680;52.182;5.398;2023-02-01T04:30:56;101838.75;;;5.90;82.27
71976;BME280;60680;52.182;5.398;2023-02-01T04:33:23;101823.22;;;5.91;81.89
71976;BME280;60680;52.182;5.398;2023-02-01T04:35:49;101814.66;;;5.89;82.49
71976;BME280;60680;52.182;5.398;2023-02-01T04:38:16;101811.28;;;5.84;82.01
71976;BME280;60680;52.182;5.398;2023-02-01T04:40:42;101807.00;;;5.83;82.45
71976;BME280;60680;52.182;5.398;2023-02-01T04:43:09;101813.91;;;5.81;82.44
71976;BME280;60680;52.182;5.398;2023-02-01T04:45:35;101819.13;;;5.78;82.42
71976;BME280;60680;52.182;5.398;2023-02-01T04:48:02;101818.34;;;5.73;82.94
71976;BME280;60680;52.182;5.398;2023-02-01T04:50:28;101810.69;;;5.67;82.81
71976;BME280;60680;52.182;5.398;2023-02-01T04:52:55;101807.25;;;5.65;83.39
71976;BME280;60680;52.182;5.398;2023-02-01T04:55:21;101813.31;;;5.64;83.13
71976;BME280;60680;52.182;5.398;2023-02-01T04:57:48;101805.50;;;5.67;83.28
71976;BME280;60680;52.182;5.398;2023-02-01T05:00:14;101808.09;;;5.67;83.36
71976;BME280;60680;52.182;5.398;2023-02-01T05:02:41;101815.88;;;5.65;84.23
71976;BME280;60680;52.182;5.398;2023-02-01T05:05:08;101813.25;;;5.67;83.95
71976;BME280;60680;52.182;5.398;2023-02-01T05:07:34;101806.38;;;5.67;83.89
71976;BME280;60680;52.182;5.398;2023-02-01T05:10:01;101817.56;;;5.68;84.08
71976;BME280;60680;52.182;5.398;2023-02-01T05:12:27;101811.56;;;5.67;83.88
71976;BME280;60680;52.182;5.398;2023-02-01T05:15:12;101804.69;;;5.65;84.15
71976;BME280;60680;52.182;5.398;2023-02-01T05:17:39;101800.38;;;5.65;84.07
71976;BME280;60680;52.182;5.398;2023-02-01T05:20:08;101805.50;;;5.67;84.05
71976;BME280;60680;52.182;5.398;2023-02-01T05:22:35;101799.50;;;5.68;83.84
71976;BME280;60680;52.182;5.398;2023-02-01T05:25:01;101799.41;;;5.74;84.05
71976;BME280;60680;52.182;5.398;2023-02-01T05:27:29;101800.22;;;5.76;83.99
71976;BME280;60680;52.182;5.398;2023-02-01T05:29:56;101816.56;;;5.77;84.18
71976;BME280;60680;52.182;5.398;2023-02-01T05:32:23;101814.81;;;5.80;84.01
71976;BME280;60680;52.182;5.398;2023-02-01T05:34:49;101818.22;;;5.82;83.78
71976;BME280;60680;52.182;5.398;2023-02-01T05:37:16;101815.63;;;5.82;84.07
71976;BME280;60680;52.182;5.398;2023-02-01T05:39:42;101812.22;;;5.80;83.97
71976;BME280;60680;52.182;5.398;2023-02-01T05:42:09;101822.56;;;5.79;83.90
71976;BME280;60680;52.182;5.398;2023-02-01T05:44:35;101817.41;;;5.77;83.64
71976;BME280;60680;52.182;5.398;2023-02-01T05:47:02;101832.00;;;5.80;84.06
71976;BME280;60680;52.182;5.398;2023-02-01T05:49:28;101823.41;;;5.81;84.24
71976;BME280;60680;52.182;5.398;2023-02-01T05:51:55;101826.78;;;5.84;84.24
71976;BME280;60680;52.182;5.398;2023-02-01T05:54:23;101819.00;;;5.86;84.05
71976;BME280;60680;52.182;5.398;2023-02-01T05:56:49;101830.16;;;5.89;83.75
71976;BME280;60680;52.182;5.398;2023-02-01T05:59:16;101830.09;;;5.92;83.72
71976;BME280;60680;52.182;5.398;2023-02-01T06:01:42;101818.06;;;5.93;83.76
71976;BME280;60680;52.182;5.398;2023-02-01T06:04:08;101825.81;;;5.93;84.10
71976;BME280;60680;52.182;5.398;2023-02-01T06:06:35;101829.22;;;5.93;83.76
71976;BME280;60680;52.182;5.398;2023-02-01T06:09:03;101828.38;;;5.95;83.81
71976;BME280;60680;52.182;5.398;2023-02-01T06:11:29;101830.97;;;5.95;84.20
71976;BME280;60680;52.182;5.398;2023-02-01T06:13:58;101817.16;;;5.94;83.92
71976;BME280;60680;52.182;5.398;2023-02-01T06:16:24;101826.66;;;5.93;84.10
71976;BME280;60680;52.182;5.398;2023-02-01T06:18:51;101812.00;;;5.94;84.17
71976;BME280;60680;52.182;5.398;2023-02-01T06:21:18;101821.47;;;5.93;84.19
71976;BME280;60680;52.182;5.398;2023-02-01T06:23:51;101820.63;;;5.93;84.39
71976;BME280;60680;52.182;5.398;2023-02-01T06:26:18;101813.72;;;5.93;84.25
71976;BME280;60680;52.182;5.398;2023-02-01T06:28:44;101833.59;;;5.90;84.25
71976;BME280;60680;52.182;5.398;2023-02-01T06:31:11;101838.81;;;5.85;84.58
71976;BME280;60680;52.182;5.398;2023-02-01T06:33:38;101841.47;;;5.81;84.47
71976;BME280;60680;52.182;5.398;2023-02-01T06:36:07;101838.91;;;5.78;84.75
71976;BME280;60680;52.182;5.398;2023-02-01T06:38:34;101841.59;;;5.71;85.08
71976;BME280;60680;52.182;5.398;2023-02-01T06:41:01;101844.22;;;5.70;85.09
71976;BME280;60680;52.182;5.398;2023-02-01T06:43:29;101844.22;;;5.68;85.41
71976;BME280;60680;52.182;5.398;2023-02-01T06:46:00;101851.97;;;5.68;85.23
71976;BME280;60680;52.182;5.398;2023-02-01T06:48:27;101847.69;;;5.67;85.12
71976;BME280;60680;52.182;5.398;2023-02-01T06:50:54;101840.81;;;5.66;84.68
71976;BME280;60680;52.182;5.398;2023-02-01T06:53:20;101846.00;;;5.65;85.11
71976;BME280;60680;52.182;5.398;2023-02-01T06:55:55;101851.13;;;5.66;84.39
71976;BME280;60680;52.182;5.398;2023-02-01T06:58:22;101840.03;;;5.61;84.95
71976;BME280;60680;52.182;5.398;2023-02-01T07:00:49;101835.72;;;5.62;84.89
71976;BME280;60680;52.182;5.398;2023-02-01T07:03:15;101840.03;;;5.61;85.32
71976;BME280;60680;52.182;5.398;2023-02-01T07:05:42;101840.03;;;5.61;85.50
71976;BME280;60680;52.182;5.398;2023-02-01T07:08:08;101838.31;;;5.59;85.16
71976;BME280;60680;52.182;5.398;2023-02-01T07:10:35;101835.72;;;5.62;85.15
71976;BME280;60680;52.182;5.398;2023-02-01T07:13:01;101833.97;;;5.65;84.98
71976;BME280;60680;52.182;5.398;2023-02-01T07:15:28;101837.38;;;5.66;85.99
71976;BME280;60680;52.182;5.398;2023-02-01T07:17:55;101833.06;;;5.66;85.35
71976;BME280;60680;52.182;5.398;2023-02-01T07:20:21;101835.63;;;5.68;85.40
71976;BME280;60680;52.182;5.398;2023-02-01T07:22:54;101845.06;;;5.70;85.35
71976;BME280;60680;52.182;5.398;2023-02-01T07:25:20;101833.06;;;5.68;85.16
71976;BME280;60680;52.182;5.398;2023-02-01T07:27:47;101839.06;;;5.67;85.67
71976;BME280;60680;52.182;5.398;2023-02-01T07:30:13;101833.97;;;5.65;85.46
71976;BME280;60680;52.182;5.398;2023-02-01T07:32:40;101832.22;;;5.64;85.69
71976;BME280;60680;52.182;5.398;2023-02-01T07:35:07;101841.72;;;5.62;86.46
71976;BME280;60680;52.182;5.398;2023-02-01T07:37:34;101854.63;;;5.65;86.21
71976;BME280;60680;52.182;5.398;2023-02-01T07:40:00;101846.81;;;5.68;86.10
71976;BME280;60680;52.182;5.398;2023-02-01T07:42:26;101835.66;;;5.66;86.22
71976;BME280;60680;52.182;5.398;2023-02-01T07:44:53;101845.97;;;5.68;85.63
71976;BME280;60680;52.182;5.398;2023-02-01T07:47:19;101846.81;;;5.67;85.74
71976;BME280;60680;52.182;5.398;2023-02-01T07:49:46;101839.91;;;5.70;85.81
71976;BME280;60680;52.182;5.398;2023-02-01T07:52:12;101831.31;;;5.68;85.12
71976;BME280;60680;52.182;5.398;2023-02-01T07:54:41;101848.50;;;5.71;85.69
71976;BME280;60680;52.182;5.398;2023-02-01T07:57:08;101845.91;;;5.71;85.53
71976;BME280;60680;52.182;5.398;2023-02-01T07:59:34;101845.06;;;5.69;85.77
71976;BME280;60680;52.182;5.398;2023-02-01T08:02:01;101851.09;;;5.69;85.52
71976;BME280;60680;52.182;5.398;2023-02-01T08:04:28;101857.09;;;5.71;85.12
71976;BME280;60680;52.182;5.398;2023-02-01T08:06:55;101866.56;;;5.72;85.32
71976;BME280;60680;52.182;5.398;2023-02-01T08:09:21;101863.97;;;5.71;85.65
71976;BME280;60680;52.182;5.398;2023-02-01T08:11:48;101861.41;;;5.69;85.46
71976;BME280;60680;52.182;5.398;2023-02-01T08:14:14;101858.81;;;5.71;84.95
71976;BME280;60680;52.182;5.398;2023-02-01T08:16:41;101851.91;;;5.73;85.17
71976;BME280;60680;52.182;5.398;2023-02-01T08:19:07;101852.75;;;5.75;85.44
71976;BME280;60680;52.182;5.398;2023-02-01T08:21:34;101851.00;;;5.77;85.48
71976;BME280;60680;52.182;5.398;2023-02-01T08:24:05;101845.72;;;5.85;85.37
71976;BME280;60680;52.182;5.398;2023-02-01T08:26:32;101843.91;;;5.91;85.63
71976;BME280;60680;52.182;5.398;2023-02-01T08:29:00;101837.00;;;5.95;85.01
71976;BME280;60680;52.182;5.398;2023-02-01T08:31:28;101842.09;;;6.00;84.97
71976;BME280;60680;52.182;5.398;2023-02-01T08:34:00;101829.19;;;6.00;84.98
71976;BME280;60680;52.182;5.398;2023-02-01T08:36:31;101835.25;;;5.96;84.97
71976;BME280;60680;52.182;5.398;2023-02-01T08:38:57;101837.84;;;5.96;85.44
71976;BME280;60680;52.182;5.398;2023-02-01T08:41:27;101832.66;;;5.94;85.13
71976;BME280;60680;52.182;5.398;2023-02-01T08:43:53;101833.50;;;5.98;85.61
71976;BME280;60680;52.182;5.398;2023-02-01T08:46:21;101830.88;;;5.99;85.57
71976;BME280;60680;52.182;5.398;2023-02-01T08:48:49;101835.19;;;6.02;84.99
71976;BME280;60680;52.182;5.398;2023-02-01T08:51:17;101840.25;;;6.06;84.39
71976;BME280;60680;52.182;5.398;2023-02-01T08:53:44;101837.59;;;6.11;84.51
71976;BME280;60680;52.182;5.398;2023-02-01T08:56:12;101843.53;;;6.16;84.49
71976;BME280;60680;52.182;5.398;2023-02-01T08:58:40;101833.16;;;6.21;84.43
71976;BME280;60680;52.182;5.398;2023-02-01T09:01:08;101825.34;;;6.22;84.33
71976;BME280;60680;52.182;5.398;2023-02-01T09:03:35;101828.72;;;6.27;83.79
71976;BME280;60680;52.182;5.398;2023-02-01T09:06:06;101811.41;;;6.32;84.09
71976;BME280;60680;52.182;5.398;2023-02-01T09:08:33;101830.97;;;6.47;83.76
71976;BME280;60680;52.182;5.398;2023-02-01T09:11:02;101823.72;;;6.68;82.77
71976;BME280;60680;52.182;5.398;2023-02-01T09:13:29;101832.00;;;6.87;83.04
71976;BME280;60680;52.182;5.398;2023-02-01T09:15:55;101823.94;;;7.02;81.92
71976;BME280;60680;52.182;5.398;2023-02-01T09:18:22;101824.72;;;7.06;81.40
71976;BME280;60680;52.182;5.398;2023-02-01T09:20:49;101814.28;;;7.09;81.26
71976;BME280;60680;52.182;5.398;2023-02-01T09:23:15;101822.97;;;7.06;81.20
71976;BME280;60680;52.182;5.398;2023-02-01T09:25:42;101806.72;;;7.00;80.90
71976;BME280;60680;52.182;5.398;2023-02-01T09:28:08;101819.66;;;7.00;80.97
71976;BME280;60680;52.182;5.398;2023-02-01T09:30:36;101828.28;;;7.00;80.82
71976;BME280;60680;52.182;5.398;2023-02-01T09:33:03;101830.88;;;6.99;80.73
71976;BME280;60680;52.182;5.398;2023-02-01T09:35:30;101839.53;;;6.98;80.75
71976;BME280;60680;52.182;5.398;2023-02-01T09:37:56;101839.56;;;6.96;80.44
71976;BME280;60680;52.182;5.398;2023-02-01T09:40:23;101843.06;;;6.93;80.27
71976;BME280;60680;52.182;5.398;2023-02-01T09:42:58;101826.66;;;6.94;80.44
71976;BME280;60680;52.182;5.398;2023-02-01T09:45:35;101821.47;;;6.94;80.39
71976;BME280;60680;52.182;5.398;2023-02-01T09:48:21;101828.38;;;6.96;80.55
71976;BME280;60680;52.182;5.398;2023-02-01T09:50:54;101823.22;;;6.94;80.56
71976;BME280;60680;52.182;5.398;2023-02-01T09:53:35;101826.69;;;6.93;80.87
71976;BME280;60680;52.182;5.398;2023-02-01T09:58:41;101822.50;;;6.86;80.87
71976;BME280;60680;52.182;5.398;2023-02-01T10:01:26;101819.09;;;6.84;81.44
71976;BME280;60680;52.182;5.398;2023-02-01T10:04:03;101819.09;;;6.84;80.55
71976;BME280;60680;52.182;5.398;2023-02-01T10:10:01;101808.72;;;6.87;82.16
71976;BME280;60680;52.182;5.398;2023-02-01T10:12:41;101808.72;;;6.87;81.83
71976;BME280;60680;52.182;5.398;2023-02-01T10:26:08;101825.50;;;6.64;85.90
71976;BME280;60680;52.182;5.398;2023-02-01T10:28:39;101829.91;;;6.59;86.48
71976;BME280;60680;52.182;5.398;2023-02-01T10:31:08;101828.16;;;6.60;86.88
71976;BME280;60680;52.182;5.398;2023-02-01T10:33:42;101827.28;;;6.61;87.12
71976;BME280;60680;52.182;5.398;2023-02-01T10:36:16;101814.31;;;6.62;87.19
71976;BME280;60680;52.182;5.398;2023-02-01T10:38:45;101816.91;;;6.64;87.42
71976;BME280;60680;52.182;5.398;2023-02-01T10:41:18;101814.31;;;6.64;87.35
71976;BME280;60680;52.182;5.398;2023-02-01T10:43:48;101803.97;;;6.64;87.37
71976;BME280;60680;52.182;5.398;2023-02-01T10:46:16;101820.31;;;6.66;87.06
71976;BME280;60680;52.182;5.398;2023-02-01T10:48:43;101795.25;;;6.69;85.52
71976;BME280;60680;52.182;5.398;2023-02-01T10:51:21;101800.28;;;6.76;85.70
71976;BME280;60680;52.182;5.398;2023-02-01T10:53:56;101799.34;;;6.80;85.72
71976;BME280;60680;52.182;5.398;2023-02-01T10:56:25;101781.19;;;6.83;84.70
71976;BME280;60680;52.182;5.398;2023-02-01T10:59:03;101801.66;;;6.93;84.31
71976;BME280;60680;52.182;5.398;2023-02-01T11:01:34;101810.13;;;7.02;83.75
71976;BME280;60680;52.182;5.398;2023-02-01T11:04:04;101793.56;;;7.10;83.26
71976;BME280;60680;52.182;5.398;2023-02-01T11:06:35;101798.75;;;7.10;83.11
71976;BME280;60680;52.182;5.398;2023-02-01T11:11:32;101775.63;;;7.01;83.52
71976;BME280;60680;52.182;5.398;2023-02-01T11:14:10;101786.91;;;6.99;84.24
71976;BME280;60680;52.182;5.398;2023-02-01T11:16:39;101784.31;;;6.99;84.36
71976;BME280;60680;52.182;5.398;2023-02-01T11:19:06;101784.34;;;6.97;84.85
71976;BME280;60680;52.182;5.398;2023-02-01T11:21:34;101781.78;;;6.97;84.79
71976;BME280;60680;52.182;5.398;2023-02-01T11:24:03;101791.25;;;6.97;85.21
71976;BME280;60680;52.182;5.398;2023-02-01T11:26:31;101795.56;;;6.98;85.16
71976;BME280;60680;52.182;5.398;2023-02-01T11:29:11;101791.13;;;7.03;84.85
71976;BME280;60680;52.182;5.398;2023-02-01T11:31:39;101790.31;;;7.01;84.08
71976;BME280;60680;52.182;5.398;2023-02-01T11:34:13;101796.19;;;7.07;84.60
71976;BME280;60680;52.182;5.398;2023-02-01T11:36:41;101797.72;;;7.18;84.25
71976;BME280;60680;52.182;5.398;2023-02-01T11:44:35;101775.00;;;7.32;82.78
71976;BME280;60680;52.182;5.398;2023-02-01T11:49:50;101786.09;;;7.37;82.40
71976;BME280;60680;52.182;5.398;2023-02-01T11:54:51;101762.78;;;7.37;82.04
71976;BME280;60680;52.182;5.398;2023-02-01T12:03:18;101761.78;;;7.44;80.67
71976;BME280;60680;52.182;5.398;2023-02-01T12:14:32;101762.00;;;7.71;80.45
71976;BME280;60680;52.182;5.398;2023-02-01T12:22:22;101749.00;;;7.74;79.21
71976;BME280;60680;52.182;5.398;2023-02-01T12:25:11;101748.22;;;7.70;80.07
71976;BME280;60680;52.182;5.398;2023-02-01T12:33:31;101757.13;;;7.59;79.90
71976;BME280;60680;52.182;5.398;2023-02-01T12:41:56;101750.28;;;7.56;79.72
71976;BME280;60680;52.182;5.398;2023-02-01T12:44:31;101767.47;;;7.59;80.91
71976;BME280;60680;52.182;5.398;2023-02-01T12:52:42;101747.69;;;7.56;80.32
71976;BME280;60680;52.182;5.398;2023-02-01T12:57:50;101744.34;;;7.51;80.09
71976;BME280;60680;52.182;5.398;2023-02-01T13:00:35;101734.84;;;7.51;80.55
71976;BME280;60680;52.182;5.398;2023-02-01T13:11:22;101762.38;;;7.55;80.58
71976;BME280;60680;52.182;5.398;2023-02-01T13:16:45;101755.56;;;7.51;80.44
71976;BME280;60680;52.182;5.398;2023-02-01T13:19:28;101761.59;;;7.52;80.43
71976;BME280;60680;52.182;5.398;2023-02-01T13:21:59;101766.81;;;7.50;80.91
71976;BME280;60680;52.182;5.398;2023-02-01T13:24:40;101759.94;;;7.49;81.05
71976;BME280;60680;52.182;5.398;2023-02-01T13:27:16;101768.53;;;7.50;81.00
71976;BME280;60680;52.182;5.398;2023-02-01T13:35:47;101784.91;;;7.52;81.51
71976;BME280;60680;52.182;5.398;2023-02-01T13:41:52;101777.78;;;7.62;80.41
71976;BME280;60680;52.182;5.398;2023-02-01T13:44:27;101765.63;;;7.65;80.73
71976;BME280;60680;52.182;5.398;2023-02-01T13:46:57;101755.16;;;7.68;80.54
71976;BME280;60680;52.182;5.398;2023-02-01T13:49:28;101770.66;;;7.71;80.51
71976;BME280;60680;52.182;5.398;2023-02-01T13:51:57;101768.78;;;7.78;80.80
71976;BME280;60680;52.182;5.398;2023-02-01T13:54:39;101762.56;;;7.84;80.54
71976;BME280;60680;52.182;5.398;2023-02-01T13:57:29;101759.84;;;7.88;80.21
71976;BME280;60680;52.182;5.398;2023-02-01T14:00:26;101765.00;;;7.90;80.04
71976;BME280;60680;52.182;5.398;2023-02-01T14:13:56;101762.41;;;7.91;80.72
71976;BME280;60680;52.182;5.398;2023-02-01T14:16:16;101777.22;;;7.86;80.80
71976;BME280;60680;52.182;5.398;2023-02-01T14:26:20;101783.41;;;7.79;81.97
71976;BME280;60680;52.182;5.398;2023-02-01T14:31:32;101758.28;;;7.83;82.17
71976;BME280;60680;52.182;5.398;2023-02-01T14:34:03;101758.25;;;7.84;81.87
71976;BME280;60680;52.182;5.398;2023-02-01T14:36:44;101767.75;;;7.84;81.37
71976;BME280;60680;52.182;5.398;2023-02-01T14:39:24;101766.09;;;7.81;82.41
71976;BME280;60680;52.182;5.398;2023-02-01T14:41:55;101770.47;;;7.79;81.93
71976;BME280;60680;52.182;5.398;2023-02-01T14:44:33;101762.72;;;7.78;82.10
71976;BME280;60680;52.182;5.398;2023-02-01T14:49:37;101773.13;;;7.76;82.08
71976;BME280;60680;52.182;5.398;2023-02-01T14:52:11;101783.56;;;7.73;82.77
71976;BME280;60680;52.182;5.398;2023-02-01T14:54:39;101787.09;;;7.69;84.36
71976;BME280;60680;52.182;5.398;2023-02-01T14:57:15;101786.41;;;7.61;85.95
71976;BME280;60680;52.182;5.398;2023-02-01T14:59:45;101778.00;;;7.52;87.05
71976;BME280;60680;52.182;5.398;2023-02-01T15:02:21;101807.44;;;7.48;86.37
71976;BME280;60680;52.182;5.398;2023-02-01T15:04:56;101786.78;;;7.45;86.46
71976;BME280;60680;52.182;5.398;2023-02-01T15:07:25;101778.16;;;7.45;86.99
71976;BME280;60680;52.182;5.398;2023-02-01T15:09:56;101798.03;;;7.44;87.22
71976;BME280;60680;52.182;5.398;2023-02-01T15:12:26;101800.63;;;7.44;87.52
71976;BME280;60680;52.182;5.398;2023-02-01T15:15:14;101782.50;;;7.44;87.48
71976;BME280;60680;52.182;5.398;2023-02-01T15:17:58;101794.53;;;7.45;87.41
71976;BME280;60680;52.182;5.398;2023-02-01T15:20:30;101809.22;;;7.46;87.05
71976;BME280;60680;52.182;5.398;2023-02-01T15:22:58;101802.25;;;7.48;86.48
71976;BME280;60680;52.182;5.398;2023-02-01T15:25:26;101805.69;;;7.49;87.22
71976;BME280;60680;52.182;5.398;2023-02-01T15:27:53;101801.38;;;7.48;86.74
71976;BME280;60680;52.182;5.398;2023-02-01T15:30:26;101809.94;;;7.51;86.34